sensor_id;sensor_type;location;lat;lon;timestamp;pressure;altitude;pressure_sealevel;temperature;humidity
42519;BME280;28147;47.520;18.920;2023-05-10T00:00:39;98643.38;;;17.03;46.44
42519;BME280;28147;47.520;18.920;2023-05-10T00:03:05;98644.44;;;17.07;46.17
42519;BME280;28147;47.520;18.920;2023-05-10T00:05:31;98636.09;;;17.24;45.79
42519;BME280;28147;47.520;18.920;2023-05-10T00:07:57;98641.22;;;17.00;46.19
42519;BME280;28147;47.520;18.920;2023-05-10T00:10:22;98645.25;;;17.28;45.78
42519;BME280;28147;47.520;18.920;2023-05-10T00:12:47;98640.41;;;17.15;45.85
42519;BME280;28147;47.520;18.920;2023-05-10T00:15:13;98639.06;;;17.27;45.73
42519;BME280;28147;47.520;18.920;2023-05-10T00:17:38;98640.91;;;17.27;45.77
42519;BME280;28147;47.520;18.920;2023-05-10T00:20:04;98637.47;;;17.16;46.24
42519;BME280;28147;47.520;18.920;2023-05-10T00:22:30;98631.25;;;16.85;47.00
42519;BME280;28147;47.520;18.920;2023-05-10T00:24:57;98634.34;;;16.16;48.21
42519;BME280;28147;47.520;18.920;2023-05-10T00:27:22;98629.84;;;16.37;47.74
42519;BME280;28147;47.520;18.920;2023-05-10T00:29:48;98636.97;;;15.95;49.00
42519;BME280;28147;47.520;18.920;2023-05-10T00:32:14;98630.66;;;16.37;48.05
42519;BME280;28147;47.520;18.920;2023-05-10T00:34:39;98629.03;;;16.51;47.82
42519;BME280;28147;47.520;18.920;2023-05-10T00:37:05;98630.75;;;15.85;49.05
42519;BME280;28147;47.520;18.920;2023-05-10T00:39:30;98616.25;;;15.91;48.96
42519;BME280;28147;47.520;18.920;2023-05-10T00:41:56;98625.72;;;16.09;49.00
42519;BME280;28147;47.520;18.920;2023-05-10T00:44:21;98628.22;;;16.25;48.48
42519;BME280;28147;47.520;18.920;2023-05-10T00:46:47;98624.50;;;16.52;47.82
42519;BME280;28147;47.520;18.920;2023-05-10T00:49:13;98629.81;;;16.32;48.24
42519;BME280;28147;47.520;18.920;2023-05-10T00:51:39;98620.75;;;15.70;49.75
42519;BME280;28147;47.520;18.920;2023-05-10T00:54:05;98622.44;;;15.91;49.23
42519;BME280;28147;47.520;18.920;2023-05-10T00:56:30;98616.50;;;15.84;49.08
42519;BME280;28147;47.520;18.920;2023-05-10T00:58:56;98616.78;;;15.88;49.23
42519;BME280;28147;47.520;18.920;2023-05-10T01:01:22;98625.44;;;16.05;48.74
42519;BME280;28147;47.520;18.920;2023-05-10T01:03:48;98617.47;;;16.36;48.05
42519;BME280;28147;47.520;18.920;2023-05-10T01:06:13;98617.16;;;16.17;48.40
42519;BME280;28147;47.520;18.920;2023-05-10T01:08:39;98622.06;;;16.40;48.09
42519;BME280;28147;47.520;18.920;2023-05-10T01:11:05;98618.75;;;16.02;49.23
42519;BME280;28147;47.520;18.920;2023-05-10T01:13:36;98617.19;;;16.32;48.10
42519;BME280;28147;47.520;18.920;2023-05-10T01:16:02;98617.22;;;16.42;48.44
42519;BME280;28147;47.520;18.920;2023-05-10T01:18:29;98616.66;;;16.35;48.28
42519;BME280;28147;47.520;18.920;2023-05-10T01:21:17;98623.91;;;16.40;48.30
42519;BME280;28147;47.520;18.920;2023-05-10T01:26:32;98622.31;;;16.39;48.19
42519;BME280;28147;47.520;18.920;2023-05-10T01:35:07;98619.56;;;16.13;48.74
42519;BME280;28147;47.520;18.920;2023-05-10T01:37:41;98622.84;;;16.36;48.86
42519;BME280;28147;47.520;18.920;2023-05-10T01:40:23;98621.25;;;16.50;47.84
42519;BME280;28147;47.520;18.920;2023-05-10T01:43:01;98613.75;;;16.52;47.79
42519;BME280;28147;47.520;18.920;2023-05-10T01:48:14;98614.50;;;16.22;48.70
42519;BME280;28147;47.520;18.920;2023-05-10T01:50:43;98618.50;;;16.14;49.19
42519;BME280;28147;47.520;18.920;2023-05-10T01:53:11;98613.66;;;16.16;48.88
42519;BME280;28147;47.520;18.920;2023-05-10T01:55:46;98614.47;;;16.12;48.92
42519;BME280;28147;47.520;18.920;2023-05-10T01:58:20;98609.69;;;16.34;48.09
42519;BME280;28147;47.520;18.920;2023-05-10T02:00:47;98608.31;;;16.32;48.68
42519;BME280;28147;47.520;18.920;2023-05-10T02:03:14;98610.44;;;16.19;48.24
42519;BME280;28147;47.520;18.920;2023-05-10T02:05:43;98604.22;;;16.09;48.90
42519;BME280;28147;47.520;18.920;2023-05-10T02:08:11;98604.00;;;16.20;48.99
42519;BME280;28147;47.520;18.920;2023-05-10T02:10:39;98598.34;;;16.07;48.94
42519;BME280;28147;47.520;18.920;2023-05-10T02:13:05;98595.38;;;16.03;49.44
42519;BME280;28147;47.520;18.920;2023-05-10T02:15:33;98594.88;;;16.21;48.67
42519;BME280;28147;47.520;18.920;2023-05-10T02:18:00;98591.91;;;16.18;49.25
42519;BME280;28147;47.520;18.920;2023-05-10T02:20:28;98590.28;;;16.07;49.27
42519;BME280;28147;47.520;18.920;2023-05-10T02:22:55;98584.34;;;16.04;49.34
42519;BME280;28147;47.520;18.920;2023-05-10T02:25:23;98582.50;;;16.20;49.40
42519;BME280;28147;47.520;18.920;2023-05-10T02:27:51;98586.56;;;16.18;49.34
42519;BME280;28147;47.520;18.920;2023-05-10T02:30:19;98588.13;;;16.03;49.77
42519;BME280;28147;47.520;18.920;2023-05-10T02:32:46;98588.44;;;16.33;49.02
42519;BME280;28147;47.520;18.920;2023-05-10T02:35:12;98594.63;;;16.33;48.75
42519;BME280;28147;47.520;18.920;2023-05-10T02:37:39;98587.66;;;16.47;48.46
42519;BME280;28147;47.520;18.920;2023-05-10T02:40:06;98595.97;;;16.25;49.32
42519;BME280;28147;47.520;18.920;2023-05-10T02:42:35;98584.94;;;16.32;49.06
42519;BME280;28147;47.520;18.920;2023-05-10T02:45:05;98590.59;;;16.30;49.26
42519;BME280;28147;47.520;18.920;2023-05-10T02:47:34;98587.59;;;16.12;49.73
42519;BME280;28147;47.520;18.920;2023-05-10T02:49:59;98596.25;;;16.29;49.53
42519;BME280;28147;47.520;18.920;2023-05-10T02:52:30;98582.81;;;16.29;49.66
42519;BME280;28147;47.520;18.920;2023-05-10T02:55:02;98591.69;;;16.29;49.50
42519;BME280;28147;47.520;18.920;2023-05-10T02:57:33;98587.38;;;16.44;49.14
42519;BME280;28147;47.520;18.920;2023-05-10T03:00:00;98589.00;;;16.35;49.77
42519;BME280;28147;47.520;18.920;2023-05-10T03:02:26;98584.97;;;16.42;48.65
42519;BME280;28147;47.520;18.920;2023-05-10T03:04:51;98580.97;;;16.65;48.06
42519;BME280;28147;47.520;18.920;2023-05-10T03:07:18;98572.06;;;16.34;47.93
42519;BME280;28147;47.520;18.920;2023-05-10T03:09:47;98585.25;;;16.56;47.68
42519;BME280;28147;47.520;18.920;2023-05-10T03:12:23;98595.41;;;16.18;48.31
42519;BME280;28147;47.520;18.920;2023-05-10T03:15:03;98595.44;;;16.34;47.87
42519;BME280;28147;47.520;18.920;2023-05-10T03:20:59;98589.44;;;15.96;48.37
42519;BME280;28147;47.520;18.920;2023-05-10T03:23:09;98591.66;;;16.19;48.36
42519;BME280;28147;47.520;18.920;2023-05-10T03:25:37;98593.56;;;16.39;48.00
42519;BME280;28147;47.520;18.920;2023-05-10T03:28:03;98589.44;;;16.01;48.23
42519;BME280;28147;47.520;18.920;2023-05-10T03:30:30;98585.22;;;16.25;47.43
42519;BME280;28147;47.520;18.920;2023-05-10T03:32:56;98589.00;;;16.35;47.52
42519;BME280;28147;47.520;18.920;2023-05-10T03:35:23;98588.69;;;16.11;47.46
42519;BME280;28147;47.520;18.920;2023-05-10T03:37:48;98588.88;;;15.94;47.93
42519;BME280;28147;47.520;18.920;2023-05-10T03:40:14;98586.03;;;16.31;47.48
42519;BME280;28147;47.520;18.920;2023-05-10T03:42:40;98581.34;;;15.91;48.15
42519;BME280;28147;47.520;18.920;2023-05-10T03:45:06;98583.88;;;15.60;48.73
42519;BME280;28147;47.520;18.920;2023-05-10T03:47:32;98587.28;;;15.98;47.79
42519;BME280;28147;47.520;18.920;2023-05-10T03:49:57;98582.84;;;15.19;49.95
42519;BME280;28147;47.520;18.920;2023-05-10T03:52:23;98585.81;;;15.65;48.88
42519;BME280;28147;47.520;18.920;2023-05-10T03:54:48;98583.56;;;16.09;47.84
42519;BME280;28147;47.520;18.920;2023-05-10T03:57:13;98586.97;;;15.84;48.21
42519;BME280;28147;47.520;18.920;2023-05-10T03:59:39;98583.69;;;15.67;48.65
42519;BME280;28147;47.520;18.920;2023-05-10T04:02:04;98588.91;;;15.99;48.07
42519;BME280;28147;47.520;18.920;2023-05-10T04:04:30;98585.16;;;16.05;48.03
42519;BME280;28147;47.520;18.920;2023-05-10T04:06:55;98583.78;;;15.92;48.24
42519;BME280;28147;47.520;18.920;2023-05-10T04:09:20;98579.19;;;15.82;48.50
42519;BME280;28147;47.520;18.920;2023-05-10T04:11:46;98579.00;;;15.47;49.40
42519;BME280;28147;47.520;18.920;2023-05-10T04:14:11;98570.72;;;15.11;49.76
42519;BME280;28147;47.520;18.920;2023-05-10T04:16:37;98570.75;;;15.58;49.11
42519;BME280;28147;47.520;18.920;2023-05-10T04:19:02;98579.31;;;15.08;50.18
42519;BME280;28147;47.520;18.920;2023-05-10T04:21:28;98584.19;;;14.79;51.08
42519;BME280;28147;47.520;18.920;2023-05-10T04:23:53;98582.19;;;15.39;49.70
42519;BME280;28147;47.520;18.920;2023-05-10T04:26:18;98588.06;;;15.36;49.92
42519;BME280;28147;47.520;18.920;2023-05-10T04:28:44;98590.56;;;15.52;49.70
42519;BME280;28147;47.520;18.920;2023-05-10T04:31:10;98588.50;;;15.22;50.54
42519;BME280;28147;47.520;18.920;2023-05-10T04:33:36;98590.44;;;15.27;50.46
42519;BME280;28147;47.520;18.920;2023-05-10T04:36:02;98590.31;;;15.59;49.69
42519;BME280;28147;47.520;18.920;2023-05-10T04:38:29;98588.00;;;15.25;50.10
42519;BME280;28147;47.520;18.920;2023-05-10T04:40:54;98596.34;;;15.34;50.38
42519;BME280;28147;47.520;18.920;2023-05-10T04:43:20;98591.13;;;15.54;50.02
42519;BME280;28147;47.520;18.920;2023-05-10T04:45:46;98594.50;;;15.35;50.56
42519;BME280;28147;47.520;18.920;2023-05-10T04:48:11;98593.13;;;15.79;49.70
42519;BME280;28147;47.520;18.920;2023-05-10T04:50:37;98595.91;;;16.05;49.56
42519;BME280;28147;47.520;18.920;2023-05-10T04:53:03;98593.72;;;15.97;49.19
42519;BME280;28147;47.520;18.920;2023-05-10T04:55:28;98588.59;;;15.90;49.44
42519;BME280;28147;47.520;18.920;2023-05-10T04:57:53;98603.91;;;15.90;49.02
42519;BME280;28147;47.520;18.920;2023-05-10T05:00:22;98591.16;;;16.43;47.67
42519;BME280;28147;47.520;18.920;2023-05-10T05:02:47;98590.50;;;15.95;49.18
42519;BME280;28147;47.520;18.920;2023-05-10T05:05:12;98595.03;;;15.89;49.45
42519;BME280;28147;47.520;18.920;2023-05-10T05:07:38;98582.84;;;15.61;49.59
42519;BME280;28147;47.520;18.920;2023-05-10T05:10:07;98587.97;;;15.68;49.18
42519;BME280;28147;47.520;18.920;2023-05-10T05:12:33;98595.03;;;15.84;49.06
42519;BME280;28147;47.520;18.920;2023-05-10T05:14:58;98585.06;;;15.79;48.94
42519;BME280;28147;47.520;18.920;2023-05-10T05:17:23;98592.00;;;15.70;49.44
42519;BME280;28147;47.520;18.920;2023-05-10T05:19:49;98592.81;;;15.23;50.82
42519;BME280;28147;47.520;18.920;2023-05-10T05:22:14;98595.44;;;16.34;48.43
42519;BME280;28147;47.520;18.920;2023-05-10T05:24:40;98595.88;;;15.95;49.52
42519;BME280;28147;47.520;18.920;2023-05-10T05:27:05;98593.50;;;15.51;49.88
42519;BME280;28147;47.520;18.920;2023-05-10T05:29:32;98600.13;;;15.91;49.04
42519;BME280;28147;47.520;18.920;2023-05-10T05:31:58;98602.88;;;15.96;49.68
42519;BME280;28147;47.520;18.920;2023-05-10T05:34:23;98596.34;;;15.81;49.58
42519;BME280;28147;47.520;18.920;2023-05-10T05:36:49;98601.50;;;15.88;49.98
42519;BME280;28147;47.520;18.920;2023-05-10T05:39:15;98608.44;;;16.83;47.84
42519;BME280;28147;47.520;18.920;2023-05-10T05:41:41;98618.59;;;16.70;47.46
42519;BME280;28147;47.520;18.920;2023-05-10T05:44:06;98612.72;;;16.99;46.82
42519;BME280;28147;47.520;18.920;2023-05-10T05:46:31;98612.94;;;16.57;47.39
42519;BME280;28147;47.520;18.920;2023-05-10T05:48:57;98618.34;;;17.08;46.46
42519;BME280;28147;47.520;18.920;2023-05-10T05:51:22;98619.06;;;16.26;48.58
42519;BME280;28147;47.520;18.920;2023-05-10T05:53:48;98628.06;;;16.98;46.94
42519;BME280;28147;47.520;18.920;2023-05-10T05:56:13;98623.47;;;16.73;47.91
42519;BME280;28147;47.520;18.920;2023-05-10T05:58:39;98625.72;;;17.87;45.60
42519;BME280;28147;47.520;18.920;2023-05-10T06:01:04;98619.94;;;18.14;44.16
42519;BME280;28147;47.520;18.920;2023-05-10T06:03:30;98627.22;;;18.14;44.27
42519;BME280;28147;47.520;18.920;2023-05-10T06:05:55;98621.06;;;18.58;43.27
42519;BME280;28147;47.520;18.920;2023-05-10T06:08:21;98624.34;;;18.50;43.12
42519;BME280;28147;47.520;18.920;2023-05-10T06:10:46;98625.66;;;18.03;44.17
42519;BME280;28147;47.520;18.920;2023-05-10T06:13:12;98626.66;;;18.66;42.92
42519;BME280;28147;47.520;18.920;2023-05-10T06:15:38;98625.66;;;18.52;43.06
42519;BME280;28147;47.520;18.920;2023-05-10T06:18:03;98620.09;;;17.84;44.32
42519;BME280;28147;47.520;18.920;2023-05-10T06:20:29;98628.50;;;18.32;43.58
42519;BME280;28147;47.520;18.920;2023-05-10T06:22:56;98627.81;;;18.55;43.91
42519;BME280;28147;47.520;18.920;2023-05-10T06:25:22;98632.00;;;18.77;42.53
42519;BME280;28147;47.520;18.920;2023-05-10T06:27:47;98632.00;;;19.11;41.87
42519;BME280;28147;47.520;18.920;2023-05-10T06:30:13;98636.63;;;18.66;42.24
42519;BME280;28147;47.520;18.920;2023-05-10T06:32:41;98639.84;;;17.38;44.59
42519;BME280;28147;47.520;18.920;2023-05-10T06:35:07;98637.38;;;18.32;43.23
42519;BME280;28147;47.520;18.920;2023-05-10T06:37:33;98639.34;;;19.34;41.57
42519;BME280;28147;47.520;18.920;2023-05-10T06:39:58;98631.69;;;18.83;42.41
42519;BME280;28147;47.520;18.920;2023-05-10T06:42:23;98641.47;;;18.69;42.19
42519;BME280;28147;47.520;18.920;2023-05-10T06:44:50;98633.19;;;18.11;43.87
42519;BME280;28147;47.520;18.920;2023-05-10T06:47:16;98637.09;;;18.83;42.54
42519;BME280;28147;47.520;18.920;2023-05-10T06:49:41;98639.25;;;18.81;42.24
42519;BME280;28147;47.520;18.920;2023-05-10T06:52:06;98629.41;;;18.61;42.72
42519;BME280;28147;47.520;18.920;2023-05-10T06:54:32;98625.97;;;18.90;42.32
42519;BME280;28147;47.520;18.920;2023-05-10T06:56:58;98624.19;;;19.09;41.33
42519;BME280;28147;47.520;18.920;2023-05-10T06:59:23;98634.34;;;18.44;42.77
42519;BME280;28147;47.520;18.920;2023-05-10T07:01:49;98627.16;;;18.29;42.63
42519;BME280;28147;47.520;18.920;2023-05-10T07:04:14;98632.03;;;19.35;41.31
42519;BME280;28147;47.520;18.920;2023-05-10T07:06:39;98622.59;;;19.66;40.45
42519;BME280;28147;47.520;18.920;2023-05-10T07:09:05;98627.75;;;19.63;40.28
42519;BME280;28147;47.520;18.920;2023-05-10T07:11:31;98627.59;;;19.49;40.48
42519;BME280;28147;47.520;18.920;2023-05-10T07:13:56;98623.63;;;19.71;40.36
42519;BME280;28147;47.520;18.920;2023-05-10T07:16:21;98619.25;;;19.16;40.62
42519;BME280;28147;47.520;18.920;2023-05-10T07:18:47;98635.06;;;19.57;40.02
42519;BME280;28147;47.520;18.920;2023-05-10T07:21:12;98626.38;;;18.68;42.13
42519;BME280;28147;47.520;18.920;2023-05-10T07:23:38;98633.09;;;19.39;40.84
42519;BME280;28147;47.520;18.920;2023-05-10T07:26:03;98622.94;;;19.55;39.49
42519;BME280;28147;47.520;18.920;2023-05-10T07:28:28;98623.09;;;19.68;40.92
42519;BME280;28147;47.520;18.920;2023-05-10T07:30:54;98618.84;;;19.33;40.92
42519;BME280;28147;47.520;18.920;2023-05-10T07:33:20;98619.50;;;19.20;40.70
42519;BME280;28147;47.520;18.920;2023-05-10T07:35:45;98616.22;;;19.52;39.72
42519;BME280;28147;47.520;18.920;2023-05-10T07:38:10;98620.84;;;18.88;41.28
42519;BME280;28147;47.520;18.920;2023-05-10T07:40:36;98619.03;;;18.79;42.59
42519;BME280;28147;47.520;18.920;2023-05-10T07:43:01;98604.69;;;19.17;41.20
42519;BME280;28147;47.520;18.920;2023-05-10T07:45:27;98616.13;;;19.04;41.97
42519;BME280;28147;47.520;18.920;2023-05-10T07:47:53;98617.97;;;19.38;41.70
42519;BME280;28147;47.520;18.920;2023-05-10T07:50:18;98622.34;;;19.05;42.17
42519;BME280;28147;47.520;18.920;2023-05-10T07:52:44;98614.84;;;19.55;41.43
42519;BME280;28147;47.520;18.920;2023-05-10T07:55:10;98627.72;;;18.76;42.96
42519;BME280;28147;47.520;18.920;2023-05-10T07:57:35;98623.00;;;19.50;41.69
42519;BME280;28147;47.520;18.920;2023-05-10T08:00:02;98620.97;;;19.07;42.54
42519;BME280;28147;47.520;18.920;2023-05-10T08:02:28;98610.72;;;19.09;42.02
42519;BME280;28147;47.520;18.920;2023-05-10T08:04:54;98621.19;;;19.93;40.88
42519;BME280;28147;47.520;18.920;2023-05-10T08:07:21;98615.38;;;20.24;40.25
42519;BME280;28147;47.520;18.920;2023-05-10T08:09:46;98609.78;;;18.90;42.12
42519;BME280;28147;47.520;18.920;2023-05-10T08:12:11;98617.34;;;19.46;40.87
42519;BME280;28147;47.520;18.920;2023-05-10T08:14:37;98614.03;;;19.54;41.25
42519;BME280;28147;47.520;18.920;2023-05-10T08:17:03;98609.25;;;19.46;41.48
42519;BME280;28147;47.520;18.920;2023-05-10T08:19:29;98624.75;;;19.64;41.04
42519;BME280;28147;47.520;18.920;2023-05-10T08:21:54;98616.47;;;19.27;41.89
42519;BME280;28147;47.520;18.920;2023-05-10T08:24:21;98624.56;;;18.58;42.69
42519;BME280;28147;47.520;18.920;2023-05-10T08:26:46;98626.56;;;19.45;42.13
42519;BME280;28147;47.520;18.920;2023-05-10T08:29:13;98622.31;;;20.86;39.49
42519;BME280;28147;47.520;18.920;2023-05-10T08:31:38;98617.63;;;20.92;39.36
42519;BME280;28147;47.520;18.920;2023-05-10T08:34:03;98619.16;;;19.80;40.69
42519;BME280;28147;47.520;18.920;2023-05-10T08:36:29;98607.19;;;19.67;41.03
42519;BME280;28147;47.520;18.920;2023-05-10T08:38:55;98612.41;;;19.29;41.53
42519;BME280;28147;47.520;18.920;2023-05-10T08:41:21;98616.78;;;19.49;41.43
42519;BME280;28147;47.520;18.920;2023-05-10T08:43:50;98619.50;;;18.91;41.69
42519;BME280;28147;47.520;18.920;2023-05-10T08:46:17;98617.75;;;19.63;41.19
42519;BME280;28147;47.520;18.920;2023-05-10T08:48:47;98606.94;;;19.05;41.73
42519;BME280;28147;47.520;18.920;2023-05-10T08:51:15;98612.25;;;19.15;41.63
42519;BME280;28147;47.520;18.920;2023-05-10T08:53:43;98614.38;;;19.96;39.79
42519;BME280;28147;47.520;18.920;2023-05-10T08:56:09;98615.16;;;20.20;38.31
42519;BME280;28147;47.520;18.920;2023-05-10T08:58:34;98609.00;;;20.57;37.74
42519;BME280;28147;47.520;18.920;2023-05-10T09:01:02;98623.69;;;19.84;39.42
42519;BME280;28147;47.520;18.920;2023-05-10T09:03:28;98611.88;;;19.80;39.62
42519;BME280;28147;47.520;18.920;2023-05-10T09:05:54;98612.63;;;20.67;37.72
42519;BME280;28147;47.520;18.920;2023-05-10T09:08:23;98614.97;;;19.92;40.34
42519;BME280;28147;47.520;18.920;2023-05-10T09:10:50;98616.84;;;21.05;36.58
42519;BME280;28147;47.520;18.920;2023-05-10T09:13:16;98617.75;;;21.01;38.11
42519;BME280;28147;47.520;18.920;2023-05-10T09:15:44;98616.69;;;21.16;37.20
42519;BME280;28147;47.520;18.920;2023-05-10T09:18:09;98623.09;;;21.38;37.52
42519;BME280;28147;47.520;18.920;2023-05-10T09:20:35;98627.91;;;20.57;36.64
42519;BME280;28147;47.520;18.920;2023-05-10T09:23:00;98620.84;;;20.18;37.66
42519;BME280;28147;47.520;18.920;2023-05-10T09:25:26;98621.94;;;20.93;37.34
42519;BME280;28147;47.520;18.920;2023-05-10T09:27:52;98612.78;;;21.41;35.77
42519;BME280;28147;47.520;18.920;2023-05-10T09:30:30;98611.25;;;22.17;35.04
42519;BME280;28147;47.520;18.920;2023-05-10T09:32:58;98611.31;;;21.29;35.71
42519;BME280;28147;47.520;18.920;2023-05-10T09:35:25;98606.97;;;21.75;35.94
42519;BME280;28147;47.520;18.920;2023-05-10T09:37:53;98604.59;;;22.37;34.90
42519;BME280;28147;47.520;18.920;2023-05-10T09:40:21;98592.06;;;22.00;33.83
42519;BME280;28147;47.520;18.920;2023-05-10T09:42:57;98599.91;;;22.15;34.00
42519;BME280;28147;47.520;18.920;2023-05-10T09:45:28;98602.69;;;22.82;33.35
42519;BME280;28147;47.520;18.920;2023-05-10T09:47:54;98604.34;;;20.77;35.80
42519;BME280;28147;47.520;18.920;2023-05-10T09:50:20;98602.97;;;21.26;35.60
42519;BME280;28147;47.520;18.920;2023-05-10T09:52:52;98593.00;;;21.95;34.50
42519;BME280;28147;47.520;18.920;2023-05-10T09:55:20;98601.50;;;21.01;36.62
42519;BME280;28147;47.520;18.920;2023-05-10T09:57:46;98598.66;;;21.25;37.41
42519;BME280;28147;47.520;18.920;2023-05-10T10:00:19;98591.25;;;20.84;37.14
42519;BME280;28147;47.520;18.920;2023-05-10T10:02:55;98593.72;;;21.59;36.31
42519;BME280;28147;47.520;18.920;2023-05-10T10:05:28;98585.97;;;21.39;36.59
42519;BME280;28147;47.520;18.920;2023-05-10T10:07:53;98589.25;;;20.89;36.61
42519;BME280;28147;47.520;18.920;2023-05-10T10:10:19;98588.97;;;21.51;36.02
42519;BME280;28147;47.520;18.920;2023-05-10T10:12:44;98583.03;;;22.99;33.60
42519;BME280;28147;47.520;18.920;2023-05-10T10:15:10;98575.06;;;23.74;33.43
42519;BME280;28147;47.520;18.920;2023-05-10T10:17:36;98574.69;;;22.01;34.94
42519;BME280;28147;47.520;18.920;2023-05-10T10:20:06;98575.75;;;20.71;36.21
42519;BME280;28147;47.520;18.920;2023-05-10T10:22:31;98574.22;;;21.99;34.60
42519;BME280;28147;47.520;18.920;2023-05-10T10:24:57;98566.97;;;22.89;33.65
42519;BME280;28147;47.520;18.920;2023-05-10T10:30:28;98578.00;;;21.29;36.00
42519;BME280;28147;47.520;18.920;2023-05-10T10:33:18;98568.88;;;22.07;35.05
42519;BME280;28147;47.520;18.920;2023-05-10T10:35:50;98568.88;;;20.78;36.49
42519;BME280;28147;47.520;18.920;2023-05-10T10:38:17;98566.44;;;20.96;37.03
42519;BME280;28147;47.520;18.920;2023-05-10T10:40:42;98566.97;;;22.44;34.90
42519;BME280;28147;47.520;18.920;2023-05-10T10:43:28;98556.63;;;22.10;34.49
42519;BME280;28147;47.520;18.920;2023-05-10T10:46:14;98562.03;;;21.00;35.68
42519;BME280;28147;47.520;18.920;2023-05-10T10:48:43;98569.25;;;20.34;36.54
42519;BME280;28147;47.520;18.920;2023-05-10T10:51:13;98576.75;;;20.61;36.42
42519;BME280;28147;47.520;18.920;2023-05-10T10:53:40;98570.78;;;20.78;36.15
42519;BME280;28147;47.520;18.920;2023-05-10T10:56:11;98556.78;;;20.89;35.92
42519;BME280;28147;47.520;18.920;2023-05-10T10:58:38;98562.56;;;22.71;33.49
42519;BME280;28147;47.520;18.920;2023-05-10T11:01:18;98550.25;;;21.65;34.11
42519;BME280;28147;47.520;18.920;2023-05-10T11:06:30;98549.13;;;21.10;36.15
42519;BME280;28147;47.520;18.920;2023-05-10T11:09:05;98539.47;;;22.59;32.83
42519;BME280;28147;47.520;18.920;2023-05-10T11:11:31;98520.53;;;22.23;32.91
42519;BME280;28147;47.520;18.920;2023-05-10T11:14:03;98532.56;;;22.31;34.40
42519;BME280;28147;47.520;18.920;2023-05-10T11:16:40;98545.88;;;21.08;34.10
42519;BME280;28147;47.520;18.920;2023-05-10T11:19:16;98541.66;;;22.13;34.01
42519;BME280;28147;47.520;18.920;2023-05-10T11:22:11;98530.22;;;22.02;32.89
42519;BME280;28147;47.520;18.920;2023-05-10T11:24:38;98533.25;;;22.37;32.34
42519;BME280;28147;47.520;18.920;2023-05-10T11:27:04;98528.78;;;22.04;33.64
42519;BME280;28147;47.520;18.920;2023-05-10T11:29:30;98514.44;;;22.63;33.34
42519;BME280;28147;47.520;18.920;2023-05-10T11:31:59;98522.69;;;21.99;34.10
42519;BME280;28147;47.520;18.920;2023-05-10T11:34:30;98533.16;;;21.78;33.69
42519;BME280;28147;47.520;18.920;2023-05-10T11:36:57;98538.19;;;21.16;32.48
42519;BME280;28147;47.520;18.920;2023-05-10T11:39:30;98513.16;;;22.60;31.91
42519;BME280;28147;47.520;18.920;2023-05-10T11:41:56;98517.72;;;22.28;32.15
42519;BME280;28147;47.520;18.920;2023-05-10T11:44:22;98512.13;;;22.11;31.99
42519;BME280;28147;47.520;18.920;2023-05-10T11:46:48;98504.00;;;20.59;34.47
42519;BME280;28147;47.520;18.920;2023-05-10T11:49:14;98514.50;;;20.94;34.06
42519;BME280;28147;47.520;18.920;2023-05-10T11:51:39;98508.63;;;21.60;34.50
42519;BME280;28147;47.520;18.920;2023-05-10T11:54:10;98504.44;;;22.49;32.07
42519;BME280;28147;47.520;18.920;2023-05-10T11:56:40;98511.84;;;21.99;32.78
42519;BME280;28147;47.520;18.920;2023-05-10T11:59:05;98509.34;;;21.52;33.18
42519;BME280;28147;47.520;18.920;2023-05-10T12:01:31;98513.53;;;21.72;32.14
42519;BME280;28147;47.520;18.920;2023-05-10T12:03:57;98507.63;;;21.56;32.23
42519;BME280;28147;47.520;18.920;2023-05-10T12:06:27;98512.44;;;21.59;32.69
42519;BME280;28147;47.520;18.920;2023-05-10T12:08:53;98513.72;;;21.62;32.35
42519;BME280;28147;47.520;18.920;2023-05-10T12:11:19;98518.78;;;21.41;32.84
42519;BME280;28147;47.520;18.920;2023-05-10T12:13:46;98514.34;;;21.45;33.33
42519;BME280;28147;47.520;18.920;2023-05-10T12:16:13;98511.53;;;21.50;32.64
42519;BME280;28147;47.520;18.920;2023-05-10T12:18:40;98506.47;;;21.85;33.11
42519;BME280;28147;47.520;18.920;2023-05-10T12:21:06;98513.13;;;21.79;33.42
42519;BME280;28147;47.520;18.920;2023-05-10T12:23:31;98511.66;;;21.95;33.17
42519;BME280;28147;47.520;18.920;2023-05-10T12:26:02;98499.16;;;22.22;32.68
42519;BME280;28147;47.520;18.920;2023-05-10T12:28:30;98499.13;;;21.85;32.76
42519;BME280;28147;47.520;18.920;2023-05-10T12:30:57;98505.81;;;22.02;32.74
42519;BME280;28147;47.520;18.920;2023-05-10T12:33:23;98493.16;;;22.56;31.53
42519;BME280;28147;47.520;18.920;2023-05-10T12:35:50;98487.50;;;22.66;31.43
42519;BME280;28147;47.520;18.920;2023-05-10T12:40:55;98489.63;;;21.74;32.37
42519;BME280;28147;47.520;18.920;2023-05-10T12:43:20;98488.81;;;22.24;31.49
42519;BME280;28147;47.520;18.920;2023-05-10T12:45:45;98472.94;;;22.62;30.96
42519;BME280;28147;47.520;18.920;2023-05-10T12:48:13;98482.97;;;21.94;32.19
42519;BME280;28147;47.520;18.920;2023-05-10T12:50:38;98478.94;;;21.92;31.85
42519;BME280;28147;47.520;18.920;2023-05-10T12:53:04;98483.25;;;21.56;32.78
42519;BME280;28147;47.520;18.920;2023-05-10T12:55:29;98480.13;;;21.63;33.25
42519;BME280;28147;47.520;18.920;2023-05-10T12:57:54;98472.38;;;21.29;33.32
42519;BME280;28147;47.520;18.920;2023-05-10T13:00:20;98470.47;;;21.71;32.93
42519;BME280;28147;47.520;18.920;2023-05-10T13:02:45;98469.38;;;21.72;32.95
42519;BME280;28147;47.520;18.920;2023-05-10T13:05:11;98478.94;;;21.14;33.66
42519;BME280;28147;47.520;18.920;2023-05-10T13:07:38;98480.94;;;21.22;33.78
42519;BME280;28147;47.520;18.920;2023-05-10T13:10:09;98473.81;;;21.54;33.31
42519;BME280;28147;47.520;18.920;2023-05-10T13:12:35;98471.47;;;21.75;32.65